createdAt,value
2022-11-10T00:01:34.482Z,2.92
2022-11-10T00:04:03.827Z,3.80
2022-11-10T00:06:33.692Z,3.03
2022-11-10T00:09:05.320Z,3.10
2022-11-10T00:11:34.038Z,3.45
2022-11-10T00:14:27.145Z,2.97
2022-11-10T00:17:05.488Z,2.97
2022-11-10T00:19:37.144Z,3.75
2022-11-10T00:22:06.360Z,3.45
2022-11-10T00:24:36.710Z,3.90
2022-11-10T00:27:05.870Z,4.43
2022-11-10T00:29:35.968Z,4.13
2022-11-10T00:32:07.502Z,4.82
2022-11-10T00:34:36.496Z,3.42
2022-11-10T00:37:06.856Z,4.18
2022-11-10T00:39:36.017Z,3.92
2022-11-10T00:42:06.401Z,4.60
2022-11-10T00:44:35.275Z,4.28
2022-11-10T00:47:06.064Z,4.70
2022-11-10T00:49:37.509Z,4.15
2022-11-10T00:52:06.713Z,4.97
2022-11-10T00:54:36.013Z,5.20
2022-11-10T00:57:10.291Z,5.40
2022-11-10T00:59:39.527Z,5.43
2022-11-10T01:02:09.536Z,5.53
2022-11-10T01:04:38.666Z,5.05
2022-11-10T01:07:08.907Z,5.00
2022-11-10T01:09:38.937Z,4.88
2022-11-10T01:12:07.548Z,5.50
2022-11-10T01:14:36.667Z,5.00
2022-11-10T01:17:07.306Z,5.20
2022-11-10T01:19:40.903Z,4.97
2022-11-10T01:22:09.360Z,5.65
2022-11-10T01:24:38.686Z,5.05
2022-11-10T01:27:08.488Z,4.95
2022-11-10T01:29:37.208Z,4.88
2022-11-10T01:32:06.345Z,4.63
2022-11-10T01:34:36.914Z,4.90
2022-11-10T01:37:05.941Z,4.93
2022-11-10T01:39:34.489Z,4.88
2022-11-10T01:42:13.041Z,5.55
2022-11-10T01:44:43.307Z,4.35
2022-11-10T01:47:13.849Z,5.32
2022-11-10T01:49:43.751Z,4.93
2022-11-10T01:52:17.539Z,4.85
2022-11-10T01:54:50.323Z,4.68
2022-11-10T01:57:19.621Z,5.18
2022-11-10T01:59:50.475Z,4.63
2022-11-10T02:02:26.457Z,4.90
2022-11-10T02:05:00.172Z,4.97
2022-11-10T02:07:32.507Z,5.43
2022-11-10T02:10:04.696Z,4.40
2022-11-10T02:12:40.729Z,5.78
2022-11-10T02:15:14.789Z,4.70
2022-11-10T02:17:45.149Z,4.70
2022-11-10T02:20:22.223Z,5.07
2022-11-10T02:22:53.471Z,5.20
2022-11-10T02:25:24.641Z,4.65
2022-11-10T02:27:54.329Z,5.60
2022-11-10T02:30:27.551Z,4.80
2022-11-10T02:33:00.216Z,4.18
2022-11-10T02:35:29.200Z,4.45
2022-11-10T02:37:59.414Z,4.63
2022-11-10T02:40:29.701Z,5.10
2022-11-10T02:43:00.352Z,3.90
2022-11-10T02:45:32.280Z,5.30
2022-11-10T02:48:00.708Z,4.53
2022-11-10T02:50:31.256Z,4.60
2022-11-10T02:53:01.408Z,5.15
2022-11-10T02:55:30.357Z,6.07
2022-11-10T02:57:58.958Z,5.05
2022-11-10T03:00:29.459Z,5.47
2022-11-10T03:02:58.468Z,5.78
2022-11-10T03:05:27.351Z,6.45
2022-11-10T03:07:57.262Z,4.90
2022-11-10T03:10:30.953Z,6.35
2022-11-10T03:13:03.630Z,6.20
2022-11-10T03:15:33.369Z,5.53
2022-11-10T03:18:06.216Z,5.75
2022-11-10T03:20:35.538Z,4.88
2022-11-10T03:23:06.320Z,5.72
2022-11-10T03:25:37.746Z,6.50
2022-11-10T03:28:06.836Z,5.05
2022-11-10T03:30:36.200Z,5.45
2022-11-10T03:33:05.735Z,5.93
2022-11-10T03:35:35.005Z,5.80
2022-11-10T03:38:06.583Z,6.97
2022-11-10T03:40:50.881Z,5.82
2022-11-10T03:43:27.160Z,5.80
2022-11-10T03:45:56.362Z,5.65
2022-11-10T03:48:26.246Z,6.90
2022-11-10T03:51:03.864Z,7.15
2022-11-10T03:53:35.036Z,5.80
2022-11-10T03:56:07.555Z,6.30
2022-11-10T03:58:36.715Z,7.20
2022-11-10T04:01:05.698Z,5.70
2022-11-10T04:03:35.416Z,6.97
2022-11-10T04:06:22.324Z,6.00
2022-11-10T04:09:03.290Z,6.47
2022-11-10T04:11:51.529Z,5.90
2022-11-10T04:14:33.704Z,6.20
2022-11-10T04:17:03.986Z,5.85
2022-11-10T04:19:32.934Z,6.22
2022-11-10T04:22:02.911Z,6.25
2022-11-10T04:24:31.485Z,5.80
2022-11-10T04:27:01.882Z,5.45
2022-11-10T04:29:31.243Z,5.85
2022-11-10T04:31:59.966Z,6.93
2022-11-10T04:34:28.534Z,6.30
2022-11-10T04:36:57.637Z,6.18
2022-11-10T04:39:28.257Z,6.70
2022-11-10T04:42:02.313Z,5.30
2022-11-10T04:44:33.944Z,5.63
2022-11-10T04:47:05.405Z,6.78
2022-11-10T04:49:38.506Z,5.85
2022-11-10T04:52:07.981Z,6.75
2022-11-10T04:54:39.059Z,5.88
2022-11-10T04:57:07.920Z,6.75
2022-11-10T04:59:38.268Z,5.93
2022-11-10T05:02:08.741Z,6.43
2022-11-10T05:04:38.874Z,6.25
2022-11-10T05:07:08.487Z,5.95
2022-11-10T05:09:39.897Z,5.50
2022-11-10T05:12:09.441Z,5.75
2022-11-10T05:14:44.616Z,6.95
2022-11-10T05:17:13.425Z,7.32
2022-11-10T05:19:42.314Z,6.68
2022-11-10T05:22:14.498Z,8.13
2022-11-10T05:24:44.191Z,6.75
2022-11-10T05:27:13.553Z,7.68
2022-11-10T05:29:46.445Z,8.40
2022-11-10T05:32:15.058Z,8.02
2022-11-10T05:34:45.289Z,8.60
2022-11-10T05:37:13.990Z,9.27
2022-11-10T05:39:42.655Z,10.13
2022-11-10T05:42:14.304Z,10.05
2022-11-10T05:44:44.954Z,9.48
2022-11-10T05:47:15.513Z,11.00
2022-11-10T05:49:44.607Z,11.02
2022-11-10T05:52:13.071Z,11.93
2022-11-10T05:54:47.863Z,10.60
2022-11-10T05:57:16.983Z,10.45
2022-11-10T05:59:51.093Z,11.35
2022-11-10T06:02:19.551Z,11.40
2022-11-10T06:04:50.004Z,12.07
2022-11-10T06:07:20.028Z,11.95
2022-11-10T06:09:51.857Z,10.82
2022-11-10T06:12:20.805Z,10.15
2022-11-10T06:14:52.232Z,11.18
2022-11-10T06:17:21.263Z,11.02
2022-11-10T06:19:53.587Z,10.80
2022-11-10T06:22:26.589Z,11.15
2022-11-10T06:24:59.424Z,12.32
2022-11-10T06:27:28.425Z,11.65
2022-11-10T06:29:59.416Z,10.80
2022-11-10T06:32:34.553Z,12.77
2022-11-10T06:35:04.314Z,10.95
2022-11-10T06:37:33.333Z,10.57
2022-11-10T06:40:02.431Z,11.93
2022-11-10T06:42:31.408Z,9.57
2022-11-10T06:45:04.892Z,11.85
2022-11-10T06:47:49.182Z,10.35
2022-11-10T06:50:19.412Z,11.30
2022-11-10T06:53:00.166Z,10.25
2022-11-10T06:55:30.471Z,10.02
2022-11-10T06:57:59.989Z,11.77
2022-11-10T07:00:32.433Z,11.50
2022-11-10T07:03:03.921Z,9.98
2022-11-10T07:05:37.330Z,10.60
2022-11-10T07:08:31.745Z,10.40
2022-11-10T07:11:02.180Z,10.77
2022-11-10T07:13:46.456Z,10.18
2022-11-10T07:16:24.156Z,11.48
2022-11-10T07:18:53.806Z,8.98
2022-11-10T07:21:23.149Z,9.57
2022-11-10T07:23:53.736Z,8.23
2022-11-10T07:26:23.289Z,8.25
2022-11-10T07:28:52.285Z,8.98
2022-11-10T07:31:24.495Z,7.40
2022-11-10T07:33:55.176Z,9.55
2022-11-10T07:36:25.192Z,9.35
2022-11-10T07:38:54.031Z,8.13
2022-11-10T07:41:22.511Z,7.85
2022-11-10T07:46:50.806Z,7.20
2022-11-10T07:49:23.562Z,7.18
2022-11-10T08:07:42.246Z,6.57
2022-11-10T08:16:00.880Z,6.43
2022-11-10T08:18:35.258Z,6.78
2022-11-10T08:24:06.064Z,5.10
2022-11-10T08:26:37.308Z,6.05
2022-11-10T08:29:05.966Z,5.05
2022-11-10T08:31:36.261Z,4.60
2022-11-10T08:34:07.692Z,5.03
2022-11-10T08:36:38.370Z,6.07
2022-11-10T08:39:07.840Z,5.15
2022-11-10T08:41:36.789Z,4.82
2022-11-10T08:44:10.887Z,4.85
2022-11-10T08:46:45.501Z,6.45
2022-11-10T08:49:14.645Z,5.38
2022-11-10T08:51:45.632Z,4.88
2022-11-10T08:54:15.881Z,5.93
2022-11-10T08:56:46.477Z,5.82
2022-11-10T08:59:16.119Z,4.93
2022-11-10T09:01:47.995Z,4.80
2022-11-10T09:04:19.954Z,5.43
2022-11-10T09:06:50.913Z,5.18
2022-11-10T09:09:22.731Z,4.75
2022-11-10T09:11:59.924Z,4.93
2022-11-10T09:14:29.175Z,4.75
2022-11-10T09:16:58.899Z,4.13
2022-11-10T09:19:27.830Z,4.70
2022-11-10T09:21:59.460Z,4.45
2022-11-10T09:24:31.467Z,4.55
2022-11-10T09:27:05.051Z,4.43
2022-11-10T09:29:33.549Z,5.25
2022-11-10T09:32:03.455Z,4.63
2022-11-10T09:34:32.998Z,4.65
2022-11-10T09:37:03.935Z,4.30
2022-11-10T09:39:36.000Z,4.20
2022-11-10T09:42:07.070Z,4.57
2022-11-10T09:47:56.823Z,4.40
2022-11-10T09:50:38.968Z,4.65
2022-11-10T09:53:17.792Z,4.00
2022-11-10T09:55:51.771Z,4.47
2022-11-10T09:58:24.301Z,4.10
2022-11-10T10:01:06.116Z,4.22
2022-11-10T10:03:50.207Z,3.75
2022-11-10T10:06:22.245Z,4.30
2022-11-10T10:09:24.435Z,3.85
2022-11-10T10:12:26.818Z,4.60
2022-11-10T10:15:25.668Z,3.80
2022-11-10T10:18:13.619Z,4.10
2022-11-10T10:20:56.093Z,3.83
2022-11-10T10:24:02.660Z,4.35
2022-11-10T10:26:29.349Z,4.43
2022-11-10T10:29:17.392Z,4.05
2022-11-10T10:31:51.510Z,3.65
2022-11-10T10:34:24.672Z,3.35
2022-11-10T10:36:54.035Z,3.53
2022-11-10T10:39:34.189Z,3.90
2022-11-10T10:42:17.661Z,3.78
2022-11-10T10:45:44.565Z,3.53
2022-11-10T10:48:29.288Z,4.70
2022-11-10T10:50:59.543Z,3.20
2022-11-10T10:53:28.822Z,4.28
2022-11-10T10:56:02.317Z,3.50
2022-11-10T10:58:36.684Z,3.85
2022-11-10T11:01:28.959Z,3.60
2022-11-10T11:03:59.536Z,4.05
2022-11-10T11:06:29.955Z,3.10
2022-11-10T11:09:05.240Z,3.67
2022-11-10T11:11:41.770Z,4.28
2022-11-10T11:14:25.724Z,3.45
2022-11-10T11:16:59.618Z,4.55
2022-11-10T11:19:32.270Z,4.00
2022-11-10T11:22:52.226Z,4.15
2022-11-10T11:25:38.662Z,4.07
2022-11-10T11:28:24.230Z,3.20
2022-11-10T11:33:44.281Z,3.15
2022-11-10T11:36:40.913Z,3.58
2022-11-10T11:43:43.798Z,3.08
2022-11-10T11:46:49.404Z,4.25
2022-11-10T11:56:17.126Z,3.63
2022-11-10T11:58:57.480Z,3.47
2022-11-10T12:01:45.831Z,3.47
2022-11-10T12:04:49.239Z,3.58
2022-11-10T12:07:45.553Z,4.03
2022-11-10T12:10:31.272Z,3.60
2022-11-10T12:13:14.861Z,3.40
2022-11-10T12:15:54.414Z,3.83
2022-11-10T12:18:34.872Z,4.15
2022-11-10T12:21:21.775Z,3.45
2022-11-10T12:24:12.756Z,3.50
2022-11-10T12:26:53.485Z,3.25
2022-11-10T12:29:30.975Z,3.47
2022-11-10T12:32:08.961Z,3.45
2022-11-10T12:34:48.113Z,4.10
2022-11-10T12:37:27.968Z,3.60
2022-11-10T12:40:04.384Z,3.80
2022-11-10T12:42:37.594Z,3.20
2022-11-10T12:45:16.883Z,3.70
2022-11-10T12:47:49.797Z,3.55
2022-11-10T12:50:47.355Z,3.58
2022-11-10T12:53:23.141Z,2.72
2022-11-10T12:55:56.882Z,3.30
2022-11-10T12:58:26.759Z,3.85
2022-11-10T13:01:02.582Z,3.92
2022-11-10T13:03:35.731Z,3.97
2022-11-10T13:06:09.476Z,3.45
2022-11-10T13:08:49.967Z,3.78
2022-11-10T13:11:32.407Z,3.30
2022-11-10T13:14:05.220Z,3.05
2022-11-10T13:16:52.214Z,3.42
2022-11-10T13:19:53.019Z,3.38
2022-11-10T13:22:41.000Z,3.13
2022-11-10T13:26:05.633Z,3.20
2022-11-10T13:29:01.880Z,3.17
2022-11-10T13:34:36.038Z,2.70
2022-11-10T13:37:59.433Z,2.92
2022-11-10T13:40:39.724Z,3.42
2022-11-10T13:43:29.924Z,3.25
2022-11-10T13:46:13.745Z,3.22
2022-11-10T13:49:06.542Z,3.35
2022-11-10T13:51:47.468Z,3.13
2022-11-10T13:54:45.983Z,2.85
2022-11-10T13:57:31.841Z,3.63
2022-11-10T14:02:57.030Z,3.78
2022-11-10T14:06:08.280Z,3.83
2022-11-10T14:08:48.539Z,3.15
2022-11-10T14:11:29.230Z,2.90
2022-11-10T14:14:13.823Z,2.78
2022-11-10T14:16:46.893Z,3.28
2022-11-10T14:19:33.155Z,3.45
2022-11-10T14:22:10.875Z,3.53
2022-11-10T14:24:50.739Z,3.22
2022-11-10T14:27:28.080Z,3.63
2022-11-10T14:30:24.794Z,3.03
2022-11-10T14:33:00.344Z,3.05
2022-11-10T14:35:32.670Z,3.30
2022-11-10T14:38:05.480Z,3.10
2022-11-10T14:40:34.195Z,3.15
2022-11-10T14:43:04.488Z,2.90
2022-11-10T14:45:33.756Z,3.15
2022-11-10T14:48:04.801Z,2.80
2022-11-10T14:50:36.908Z,3.35
2022-11-10T14:53:23.385Z,3.15
2022-11-10T14:55:54.936Z,2.92
2022-11-10T14:58:32.312Z,2.85
2022-11-10T15:01:02.745Z,3.10
2022-11-10T15:03:39.819Z,2.50
2022-11-10T15:06:13.138Z,4.05
2022-11-10T15:08:43.670Z,3.17
2022-11-10T15:11:41.267Z,2.88
2022-11-10T15:17:09.739Z,2.95
2022-11-10T15:19:41.522Z,4.35
2022-11-10T15:22:20.175Z,3.25
2022-11-10T15:24:51.312Z,2.97
2022-11-10T15:27:26.640Z,2.67
2022-11-10T15:29:58.358Z,2.83
2022-11-10T15:32:35.977Z,3.33
2022-11-10T15:35:28.660Z,2.92
2022-11-10T15:38:07.286Z,3.13
2022-11-10T15:40:45.758Z,3.42
2022-11-10T15:43:28.823Z,3.17
2022-11-10T15:46:03.592Z,3.08
2022-11-10T15:48:41.188Z,3.38
2022-11-10T15:51:12.972Z,3.20
2022-11-10T15:53:44.814Z,2.58
2022-11-10T15:56:22.158Z,2.65
2022-11-10T15:58:56.563Z,2.40
2022-11-10T16:01:28.030Z,2.83
2022-11-10T16:04:01.485Z,3.00
2022-11-10T16:06:30.792Z,2.60
2022-11-10T16:09:00.204Z,2.85
2022-11-10T16:11:32.085Z,2.67
2022-11-10T16:14:06.511Z,3.25
2022-11-10T16:16:38.275Z,3.35
2022-11-10T16:19:10.803Z,2.45
2022-11-10T16:21:39.856Z,2.85
2022-11-10T16:24:09.123Z,2.85
2022-11-10T16:26:38.001Z,2.88
2022-11-10T16:29:15.837Z,3.05
2022-11-10T16:31:44.670Z,3.47
2022-11-10T16:34:17.516Z,3.35
2022-11-10T16:36:51.919Z,2.97
2022-11-10T16:39:20.995Z,3.17
2022-11-10T16:41:49.970Z,3.20
2022-11-10T16:44:25.217Z,3.08
2022-11-10T16:46:57.471Z,3.47
2022-11-10T16:49:34.631Z,3.10
2022-11-10T16:52:10.522Z,2.75
2022-11-10T16:54:39.008Z,3.80
2022-11-10T16:57:17.721Z,3.95
2022-11-10T16:59:55.433Z,2.95
2022-11-10T17:02:40.850Z,3.13
2022-11-10T17:05:16.146Z,3.15
2022-11-10T17:07:44.715Z,2.75
2022-11-10T17:10:25.709Z,3.40
2022-11-10T17:12:58.167Z,3.35
2022-11-10T17:15:27.392Z,3.65
2022-11-10T17:17:58.830Z,3.75
2022-11-10T17:20:38.377Z,3.58
2022-11-10T17:23:08.295Z,2.78
2022-11-10T17:25:37.897Z,3.08
2022-11-10T17:28:08.533Z,2.75
2022-11-10T17:30:41.840Z,2.97
2022-11-10T17:33:14.186Z,3.05
2022-11-10T17:35:51.165Z,3.22
2022-11-10T17:38:28.470Z,2.90
2022-11-10T17:41:00.623Z,2.72
2022-11-10T17:43:29.119Z,2.97
2022-11-10T17:45:57.729Z,3.08
2022-11-10T17:48:27.195Z,2.63
2022-11-10T17:51:00.614Z,2.67
2022-11-10T17:53:30.140Z,3.40
2022-11-10T17:56:01.153Z,2.42
2022-11-10T17:58:33.425Z,2.53
2022-11-10T18:01:14.859Z,2.60
2022-11-10T18:03:48.087Z,2.80
2022-11-10T18:06:22.444Z,2.72
2022-11-10T18:08:52.061Z,2.67
2022-11-10T18:11:21.093Z,2.72
2022-11-10T18:13:50.830Z,2.55
2022-11-10T18:16:19.515Z,2.42
2022-11-10T18:18:49.960Z,3.58
2022-11-10T18:21:22.309Z,2.40
2022-11-10T18:23:53.960Z,2.88
2022-11-10T18:26:24.411Z,3.00
2022-11-10T18:28:54.587Z,2.95
2022-11-10T18:31:24.544Z,3.20
2022-11-10T18:33:59.309Z,2.75
2022-11-10T18:36:43.011Z,3.33
2022-11-10T18:39:11.558Z,3.35
2022-11-10T18:41:52.973Z,3.10
2022-11-10T18:44:25.155Z,2.40
2022-11-10T18:46:58.548Z,2.72
2022-11-10T18:49:27.321Z,2.63
2022-11-10T18:52:02.607Z,3.40
2022-11-10T18:54:31.367Z,4.45
2022-11-10T18:57:00.543Z,3.60
2022-11-10T18:59:30.498Z,3.22
2022-11-10T19:01:59.960Z,3.08
2022-11-10T19:04:28.570Z,2.85
2022-11-10T19:06:58.854Z,3.55
2022-11-10T19:09:37.644Z,3.35
2022-11-10T19:12:11.617Z,2.83
2022-11-10T19:14:41.839Z,3.13
2022-11-10T19:17:26.423Z,4.35
2022-11-10T19:19:59.795Z,3.05
2022-11-10T19:22:30.317Z,3.17
2022-11-10T19:25:09.065Z,3.30
2022-11-10T19:27:41.490Z,3.10
2022-11-10T19:30:14.380Z,3.58
2022-11-10T19:32:47.768Z,3.10
2022-11-10T19:35:16.593Z,3.15
2022-11-10T19:37:48.652Z,3.05
2022-11-10T19:40:25.854Z,4.22
2022-11-10T19:42:58.762Z,3.28
2022-11-10T19:45:28.238Z,3.80
2022-11-10T19:47:59.866Z,2.97
2022-11-10T19:50:30.026Z,3.05
2022-11-10T19:53:01.948Z,3.58
2022-11-10T19:55:36.903Z,4.10
2022-11-10T19:58:05.798Z,3.38
2022-11-10T20:00:34.385Z,3.45
2022-11-10T20:03:03.891Z,4.53
2022-11-10T20:05:36.026Z,5.25
2022-11-10T20:08:15.914Z,5.03
2022-11-10T20:10:47.065Z,3.97
2022-11-10T20:13:15.684Z,4.22
2022-11-10T20:15:45.784Z,5.35
2022-11-10T20:18:15.599Z,5.40
2022-11-10T20:20:51.218Z,4.32
2022-11-10T20:23:22.362Z,4.40
2022-11-10T20:25:51.677Z,4.43
2022-11-10T20:28:21.200Z,4.20
2022-11-10T20:30:50.138Z,4.60
2022-11-10T20:33:19.624Z,4.80
2022-11-10T20:35:49.483Z,5.85
2022-11-10T20:38:21.288Z,4.07
2022-11-10T20:40:52.496Z,4.03
2022-11-10T20:43:21.569Z,3.83
2022-11-10T20:45:56.158Z,3.60
2022-11-10T20:48:29.091Z,5.00
2022-11-10T20:50:58.316Z,4.50
2022-11-10T20:53:27.760Z,4.97
2022-11-10T20:56:06.591Z,4.65
2022-11-10T20:58:35.731Z,4.20
2022-11-10T21:01:06.093Z,3.92
2022-11-10T21:03:35.828Z,4.60
2022-11-10T21:06:05.728Z,3.88
2022-11-10T21:08:34.992Z,4.38
2022-11-10T21:11:08.637Z,4.18
2022-11-10T21:13:37.415Z,4.65
2022-11-10T21:16:09.649Z,5.20
2022-11-10T21:18:39.866Z,4.88
2022-11-10T21:21:22.931Z,5.20
2022-11-10T21:23:57.697Z,4.70
2022-11-10T21:26:28.818Z,4.93
2022-11-10T21:28:59.702Z,4.57
2022-11-10T21:31:28.625Z,5.00
2022-11-10T21:33:58.763Z,5.43
2022-11-10T21:36:29.785Z,5.38
2022-11-10T21:38:59.050Z,5.53
2022-11-10T21:41:29.444Z,6.47
2022-11-10T21:43:58.675Z,6.50
2022-11-10T21:46:27.516Z,6.68
2022-11-10T21:48:57.211Z,6.35
2022-11-10T21:51:26.165Z,6.03
2022-11-10T21:53:55.291Z,6.45
2022-11-10T21:56:24.454Z,6.70
2022-11-10T21:58:54.784Z,7.25
2022-11-10T22:01:23.819Z,7.25
2022-11-10T22:03:53.463Z,6.85
2022-11-10T22:06:22.891Z,7.07
2022-11-10T22:08:51.738Z,8.15
2022-11-10T22:11:40.282Z,8.18
2022-11-10T22:14:32.307Z,8.20
2022-11-10T22:17:18.840Z,8.00
2022-11-10T22:19:47.454Z,8.27
2022-11-10T22:22:16.582Z,7.75
2022-11-10T22:24:45.347Z,8.27
2022-11-10T22:27:14.050Z,8.88
2022-11-10T22:29:44.793Z,8.90
2022-11-10T22:32:13.887Z,8.68
2022-11-10T22:34:42.742Z,8.65
2022-11-10T22:37:11.637Z,8.82
2022-11-10T22:39:57.641Z,8.77
2022-11-10T22:42:43.897Z,9.05
2022-11-10T22:45:14.382Z,8.30
2022-11-10T22:48:00.521Z,9.30
2022-11-10T22:50:29.270Z,9.43
2022-11-10T22:52:59.227Z,9.52
2022-11-10T22:55:28.070Z,9.27
2022-11-10T22:57:56.971Z,8.68
2022-11-10T23:00:27.249Z,8.80
2022-11-10T23:02:55.733Z,8.63
2022-11-10T23:05:24.537Z,8.93
2022-11-10T23:07:53.268Z,8.02
2022-11-10T23:10:22.336Z,7.78
2022-11-10T23:12:50.978Z,9.07
2022-11-10T23:15:19.466Z,8.95
2022-11-10T23:17:49.524Z,9.18
2022-11-10T23:20:18.273Z,8.60
2022-11-10T23:22:46.946Z,8.90
2022-11-10T23:25:15.742Z,8.50
2022-11-10T23:27:44.510Z,8.85
2022-11-10T23:30:14.073Z,8.55
2022-11-10T23:32:42.974Z,9.02
2022-11-10T23:35:21.360Z,9.05
2022-11-10T23:37:53.279Z,8.75
2022-11-10T23:40:22.253Z,9.00
2022-11-10T23:42:51.029Z,8.15
2022-11-10T23:45:19.721Z,8.30
2022-11-10T23:47:48.509Z,9.23
2022-11-10T23:50:19.550Z,9.90
2022-11-10T23:52:48.505Z,9.07
2022-11-10T23:55:17.454Z,8.80
2022-11-10T23:57:47.718Z,9.45
